Time;durP1;ratioP1;P1;durP2;ratioP2;P2;SDS_P1;SDS_P2;PMS_P1;PMS_P2;Temp;Humidity;BMP_temperature;BMP_pressure;BME280_temperature;BME280_humidity;BME280_pressure;Samples;Min_cycle;Max_cycle;Signal;HPM_P1;HPM_P2
2023/04/19 00:00:46;;;;;;;2.83;2.00;;;15.70;57.20;;;;;;6262965;28;20055;-70
2023/04/19 00:03:47;;;;;;;3.22;1.70;;;15.70;57.30;;;;;;6263254;28;20488;-69
2023/04/19 00:06:47;;;;;;;5.65;1.92;;;15.60;57.30;;;;;;6245292;28;21163;-70
2023/04/19 00:09:48;;;;;;;2.17;1.63;;;15.60;57.30;;;;;;6244578;28;20047;-71
2023/04/19 00:12:49;;;;;;;2.55;1.90;;;15.50;57.40;;;;;;6262128;28;20119;-72
2023/04/19 00:15:50;;;;;;;4.15;2.08;;;15.50;57.30;;;;;;6262983;28;20045;-70
2023/04/19 00:18:51;;;;;;;2.47;1.35;;;15.40;57.30;;;;;;6263196;28;20029;-69
2023/04/19 00:21:52;;;;;;;3.92;1.70;;;15.50;57.50;;;;;;6248527;28;20033;-70
2023/04/19 00:24:52;;;;;;;1.77;1.35;;;15.40;57.50;;;;;;6249119;28;20025;-69
2023/04/19 00:27:53;;;;;;;1.88;1.20;;;15.40;57.40;;;;;;6267220;28;20021;-70
2023/04/19 00:30:54;;;;;;;3.50;1.73;;;15.40;57.30;;;;;;6250926;28;20037;-70
2023/04/19 00:33:56;;;;;;;2.30;1.30;;;15.30;57.10;;;;;;6249561;28;20063;-68
2023/04/19 00:36:59;;;;;;;2.17;1.30;;;15.30;57.10;;;;;;6248140;28;20452;-68
2023/04/19 00:40:00;;;;;;;2.20;1.17;;;15.30;57.10;;;;;;6248514;28;20086;-70
2023/04/19 00:43:01;;;;;;;3.00;1.33;;;15.30;57.10;;;;;;6266313;28;20025;-71
2023/04/19 00:46:02;;;;;;;2.08;1.30;;;15.30;57.10;;;;;;6248584;28;20048;-70
2023/04/19 00:49:03;;;;;;;1.50;1.23;;;15.20;57.00;;;;;;6248075;28;20035;-69
2023/04/19 00:52:07;;;;;;;3.30;1.48;;;15.20;57.10;;;;;;6266507;28;20029;-69
2023/04/19 00:55:11;;;;;;;2.10;1.45;;;15.20;57.20;;;;;;6266453;28;20049;-70
2023/04/19 00:58:12;;;;;;;4.07;1.60;;;15.10;57.20;;;;;;6248145;28;20469;-70
2023/04/19 01:01:13;;;;;;;2.60;1.42;;;15.10;57.30;;;;;;6248070;28;20048;-70
2023/04/19 01:04:15;;;;;;;4.47;1.90;;;15.10;57.50;;;;;;6266445;28;20040;-70
2023/04/19 01:07:18;;;;;;;3.42;1.80;;;15.00;57.50;;;;;;6266379;28;20044;-72
2023/04/19 01:10:19;;;;;;;2.55;1.67;;;15.00;57.50;;;;;;6248459;28;20379;-69
2023/04/19 01:13:19;;;;;;;3.03;1.63;;;15.10;57.60;;;;;;6231508;28;20061;-71
2023/04/19 01:16:23;;;;;;;4.65;1.77;;;15.00;57.60;;;;;;6265795;28;20063;-69
2023/04/19 01:19:25;;;;;;;2.83;2.00;;;15.00;57.50;;;;;;6246893;28;20124;-69
2023/04/19 01:22:27;;;;;;;2.00;1.40;;;15.00;57.60;;;;;;6247400;28;20032;-71
2023/04/19 01:25:27;;;;;;;3.28;2.03;;;14.90;57.50;;;;;;6266152;28;20483;-69
2023/04/19 01:28:28;;;;;;;3.17;1.80;;;14.90;57.50;;;;;;6247695;28;20064;-69
2023/04/19 01:31:29;;;;;;;2.53;1.38;;;14.90;57.50;;;;;;6266560;28;20044;-70
2023/04/19 01:34:30;;;;;;;2.65;1.67;;;14.90;57.60;;;;;;6247644;28;20032;-70
2023/04/19 01:37:34;;;;;;;3.15;1.88;;;14.80;57.60;;;;;;6246971;28;20029;-71
2023/04/19 01:40:36;;;;;;;3.05;1.60;;;14.80;57.70;;;;;;6265267;28;20021;-70
2023/04/19 01:43:38;;;;;;;2.65;1.70;;;14.80;57.70;;;;;;6246936;28;20656;-71
2023/04/19 01:46:41;;;;;;;3.33;1.08;;;14.70;58.20;;;;;;6246847;28;20040;-70
2023/04/19 01:49:42;;;;;;;3.15;1.92;;;14.70;57.60;;;;;;6246723;28;20139;-71
2023/04/19 01:52:43;;;;;;;2.53;1.30;;;14.70;57.60;;;;;;6264639;28;20603;-71
2023/04/19 01:55:44;;;;;;;7.82;1.33;;;14.70;57.60;;;;;;6264658;28;20140;-71
2023/04/19 01:58:45;;;;;;;2.38;1.40;;;14.70;57.60;;;;;;6246576;28;20024;-71
2023/04/19 02:01:46;;;;;;;3.50;1.63;;;14.70;57.60;;;;;;6246613;28;20055;-69
2023/04/19 02:04:47;;;;;;;2.88;1.85;;;14.60;57.60;;;;;;6246302;28;20028;-71
2023/04/19 02:07:48;;;;;;;7.05;1.90;;;14.60;57.70;;;;;;6246669;28;20044;-70
2023/04/19 02:10:49;;;;;;;5.35;2.30;;;14.60;57.80;;;;;;6246637;28;20051;-72
2023/04/19 02:13:51;;;;;;;4.22;2.47;;;14.60;58.00;;;;;;6246934;28;20029;-69
2023/04/19 02:16:51;;;;;;;7.68;2.47;;;14.60;58.30;;;;;;6246229;28;20029;-71
2023/04/19 02:19:53;;;;;;;4.03;1.95;;;14.60;58.70;;;;;;6245861;28;20033;-70
2023/04/19 02:22:54;;;;;;;4.28;2.35;;;14.50;58.90;;;;;;6246378;28;20031;-72
2023/04/19 02:25:55;;;;;;;3.35;2.08;;;14.50;59.10;;;;;;6264134;28;20338;-71
2023/04/19 02:28:55;;;;;;;2.55;1.83;;;14.40;59.40;;;;;;6263999;28;20079;-70
2023/04/19 02:31:56;;;;;;;2.40;1.60;;;14.40;59.50;;;;;;6264189;28;20048;-70
2023/04/19 02:34:57;;;;;;;2.42;1.60;;;14.40;59.50;;;;;;6246104;28;20051;-71
2023/04/19 02:38:02;;;;;;;3.08;2.10;;;14.30;59.50;;;;;;6264029;28;20041;-69
2023/04/19 02:41:05;;;;;;;6.28;1.88;;;14.30;59.70;;;;;;6245529;28;20033;-72
2023/04/19 02:44:05;;;;;;;4.28;2.28;;;14.20;59.90;;;;;;6244461;28;20032;-70
2023/04/19 02:47:08;;;;;;;3.03;1.75;;;14.10;60.10;;;;;;6246858;28;20021;-72
2023/04/19 02:50:10;;;;;;;3.17;1.85;;;14.10;60.60;;;;;;6245463;28;20116;-70
2023/04/19 02:53:18;;;;;;;4.68;2.17;;;14.00;60.90;;;;;;6263763;28;20036;-71
2023/04/19 02:56:18;;;;;;;3.97;1.98;;;13.90;61.20;;;;;;6245847;28;20044;-69
2023/04/19 02:59:19;;;;;;;4.90;2.17;;;13.90;61.40;;;;;;6244955;28;20413;-70
2023/04/19 03:02:20;;;;;;;2.80;1.83;;;13.90;61.60;;;;;;6245627;28;20047;-71
2023/04/19 03:05:22;;;;;;;3.53;2.42;;;13.90;61.70;;;;;;6245842;28;20427;-70
2023/04/19 03:08:23;;;;;;;3.58;1.98;;;13.80;61.80;;;;;;6263230;28;20098;-70
2023/04/19 03:11:24;;;;;;;3.97;1.70;;;13.80;62.00;;;;;;6252493;23;20110;-70
2023/04/19 03:14:25;;;;;;;4.80;2.22;;;13.80;62.10;;;;;;6245182;28;20373;-70
2023/04/19 03:17:29;;;;;;;4.07;1.92;;;13.80;62.10;;;;;;6245279;28;20543;-71
2023/04/19 03:20:30;;;;;;;3.60;2.10;;;13.70;62.20;;;;;;6243810;28;20116;-69
2023/04/19 03:23:31;;;;;;;2.33;1.70;;;13.80;62.40;;;;;;6245376;28;20032;-70
2023/04/19 03:26:35;;;;;;;5.13;2.05;;;13.80;62.40;;;;;;6244612;28;20033;-72
2023/04/19 03:29:37;;;;;;;2.70;1.60;;;13.70;62.30;;;;;;6244829;28;20402;-70
2023/04/19 03:32:41;;;;;;;5.15;2.17;;;13.70;62.20;;;;;;6245104;28;20090;-69
2023/04/19 03:35:43;;;;;;;3.65;1.85;;;13.80;62.20;;;;;;6263438;28;20120;-70
2023/04/19 03:38:45;;;;;;;3.47;2.15;;;13.70;62.00;;;;;;6244673;28;20025;-72
2023/04/19 03:41:51;;;;;;;4.43;1.77;;;13.80;61.80;;;;;;6245013;28;20035;-69
2023/04/19 03:44:59;;;;;;;2.70;1.63;;;13.80;61.50;;;;;;6246167;28;20033;-68
2023/04/19 03:48:02;;;;;;;3.95;1.45;;;13.80;60.80;;;;;;6244376;28;20029;-71
2023/04/19 03:51:03;;;;;;;3.28;1.90;;;13.70;60.40;;;;;;6244545;28;20055;-70
2023/04/19 03:54:04;;;;;;;1.90;1.45;;;13.80;60.30;;;;;;6245208;28;20149;-71
2023/04/19 03:57:05;;;;;;;4.18;1.67;;;13.80;60.00;;;;;;6249769;28;20029;-69
2023/04/19 04:00:08;;;;;;;3.97;1.75;;;13.70;59.80;;;;;;6248992;28;20425;-70
2023/04/19 04:03:14;;;;;;;6.53;1.70;;;13.70;59.80;;;;;;6252138;28;20469;-70
2023/04/19 04:06:15;;;;;;;3.35;1.80;;;13.70;59.70;;;;;;6254991;28;20036;-72
2023/04/19 04:09:17;;;;;;;3.75;1.90;;;13.70;59.60;;;;;;6252788;28;20124;-70
2023/04/19 04:12:18;;;;;;;3.38;1.92;;;13.70;59.50;;;;;;6248871;28;20021;-70
2023/04/19 04:15:19;;;;;;;3.33;2.03;;;13.70;59.40;;;;;;6249750;28;20088;-69
2023/04/19 04:18:25;;;;;;;3.55;2.08;;;13.60;59.40;;;;;;6248665;28;20667;-71
2023/04/19 04:21:27;;;;;;;2.65;1.92;;;13.60;59.40;;;;;;6249180;28;20033;-70
2023/04/19 04:24:37;;;;;;;4.63;2.17;;;13.60;59.40;;;;;;6249463;28;20360;-70
2023/04/19 04:27:55;;;;;;;4.95;2.22;;;13.60;59.30;;;;;;6249201;28;20086;-70
2023/04/19 04:30:59;;;;;;;4.28;2.50;;;13.50;59.20;;;;;;6249344;28;20037;-70
2023/04/19 04:34:01;;;;;;;5.65;2.60;;;13.60;59.30;;;;;;6249307;28;20037;-70
2023/04/19 04:37:03;;;;;;;4.90;2.97;;;13.50;59.20;;;;;;6249725;28;20036;-72
2023/04/19 04:40:05;;;;;;;4.93;2.63;;;13.50;59.20;;;;;;6249534;28;20025;-70
2023/04/19 04:43:07;;;;;;;4.68;2.80;;;13.50;59.20;;;;;;6266631;28;20179;-70
2023/04/19 04:46:08;;;;;;;7.15;2.80;;;13.50;59.20;;;;;;6248617;28;20086;-69
2023/04/19 04:49:14;;;;;;;11.35;2.80;;;13.60;59.20;;;;;;6248090;28;20066;-72
2023/04/19 04:52:17;;;;;;;4.85;2.75;;;13.60;59.20;;;;;;6251146;28;20377;-70
2023/04/19 04:55:31;;;;;;;4.60;2.63;;;13.50;59.10;;;;;;6249337;28;20039;-70
2023/04/19 04:58:33;;;;;;;5.60;2.40;;;13.50;59.00;;;;;;6248345;28;20140;-70
2023/04/19 05:01:39;;;;;;;3.95;2.50;;;13.50;59.00;;;;;;6249534;28;20045;-70
2023/04/19 05:04:40;;;;;;;5.40;2.63;;;13.40;59.00;;;;;;6265092;28;20060;-71
2023/04/19 05:07:41;;;;;;;8.13;2.60;;;13.50;59.10;;;;;;6265152;28;20029;-68
2023/04/19 05:10:42;;;;;;;3.15;2.45;;;13.50;59.70;;;;;;6248420;28;20065;-70
2023/04/19 05:13:43;;;;;;;4.30;2.75;;;13.40;59.10;;;;;;6249980;28;20040;-69
2023/04/19 05:16:45;;;;;;;5.45;2.60;;;13.40;59.20;;;;;;6267902;28;20170;-71
2023/04/19 05:19:47;;;;;;;5.43;2.85;;;13.50;59.50;;;;;;6249420;28;20492;-71
2023/04/19 05:22:48;;;;;;;3.90;2.17;;;13.40;59.80;;;;;;6251199;28;20021;-73
2023/04/19 05:25:48;;;;;;;7.72;2.45;;;13.40;60.20;;;;;;6249530;28;20099;-70
2023/04/19 05:28:50;;;;;;;3.30;2.20;;;13.40;60.30;;;;;;6250603;28;20025;-70
2023/04/19 05:32:11;;;;;;;4.05;2.22;;;13.50;60.40;;;;;;6266997;28;20036;-70
2023/04/19 05:35:19;;;;;;;8.07;3.58;;;13.50;60.50;;;;;;6249165;28;20037;-71
2023/04/19 05:38:20;;;;;;;3.83;2.10;;;13.50;60.50;;;;;;6249764;28;20090;-68
2023/04/19 05:41:21;;;;;;;9.48;3.25;;;13.50;60.80;;;;;;6247954;28;20052;-70
2023/04/19 05:44:22;;;;;;;11.98;3.03;;;13.50;61.10;;;;;;6266476;28;20327;-70
2023/04/19 05:47:23;;;;;;;4.00;2.35;;;13.50;61.40;;;;;;6247438;28;20013;-70
2023/04/19 05:50:35;;;;;;;5.18;2.70;;;13.50;61.60;;;;;;6247805;28;20059;-69
2023/04/19 05:54:02;;;;;;;5.70;2.40;;;13.40;61.60;;;;;;6265193;28;20041;-74
2023/04/19 05:57:03;;;;;;;3.80;2.72;;;13.50;61.70;;;;;;6248876;28;20337;-71
2023/04/19 06:00:05;;;;;;;8.90;2.70;;;13.50;61.60;;;;;;6248233;28;20028;-72
2023/04/19 06:03:17;;;;;;;4.03;2.25;;;13.50;61.50;;;;;;6248460;28;20025;-72
2023/04/19 06:06:21;;;;;;;3.85;2.40;;;13.60;61.50;;;;;;6266505;28;20040;-69
2023/04/19 06:09:22;;;;;;;4.53;2.33;;;13.70;61.40;;;;;;6246943;28;20025;-70
2023/04/19 06:12:23;;;;;;;5.15;2.55;;;13.70;61.30;;;;;;6266791;28;20028;-69
2023/04/19 06:15:24;;;;;;;4.72;2.38;;;13.70;61.20;;;;;;6247540;28;20037;-69
2023/04/19 06:18:26;;;;;;;6.40;2.55;;;13.70;61.10;;;;;;6246931;28;20036;-70
2023/04/19 06:21:35;;;;;;;9.93;2.60;;;13.70;61.10;;;;;;6246580;28;20064;-70
2023/04/19 06:24:36;;;;;;;6.80;2.17;;;13.80;61.10;;;;;;6267611;28;20029;-70
2023/04/19 06:27:39;;;;;;;4.47;2.20;;;13.80;60.90;;;;;;6264106;28;21119;-70
2023/04/19 06:30:40;;;;;;;6.50;3.08;;;13.80;60.90;;;;;;6246778;28;20043;-70
2023/04/19 06:33:41;;;;;;;6.93;3.03;;;13.90;61.00;;;;;;6265023;28;20146;-71
2023/04/19 06:36:42;;;;;;;5.60;3.10;;;13.90;60.90;;;;;;6246919;28;20112;-71
2023/04/19 06:39:42;;;;;;;5.25;3.10;;;14.00;60.90;;;;;;6263867;28;20056;-70
2023/04/19 06:42:43;;;;;;;7.50;2.20;;;14.10;60.80;;;;;;6264478;28;20440;-71
2023/04/19 06:45:46;;;;;;;4.18;2.25;;;14.10;60.60;;;;;;6262857;28;20025;-71
2023/04/19 06:48:47;;;;;;;6.03;2.90;;;14.20;60.30;;;;;;6263847;28;20017;-70
2023/04/19 06:51:48;;;;;;;5.28;2.25;;;14.30;60.30;;;;;;6246246;28;20055;-71
2023/04/19 06:54:49;;;;;;;5.65;2.40;;;14.30;60.10;;;;;;6264440;28;20130;-70
2023/04/19 06:57:50;;;;;;;8.25;3.10;;;14.30;60.00;;;;;;6263601;28;20066;-69
2023/04/19 07:00:52;;;;;;;3.33;2.38;;;14.40;60.00;;;;;;6263371;28;20373;-69
2023/04/19 07:03:52;;;;;;;4.13;2.50;;;14.50;59.90;;;;;;6263381;28;20024;-70
2023/04/19 07:06:53;;;;;;;3.20;2.53;;;14.60;59.80;;;;;;6263603;28;20705;-71
2023/04/19 07:09:54;;;;;;;6.53;3.17;;;14.70;59.80;;;;;;6262817;28;20045;-70
2023/04/19 07:12:55;;;;;;;9.80;4.47;;;14.80;59.60;;;;;;6263118;28;20021;-72
2023/04/19 07:15:56;;;;;;;5.10;2.67;;;15.00;59.30;;;;;;6263141;28;20503;-68
2023/04/19 07:18:57;;;;;;;5.65;2.30;;;15.10;59.00;;;;;;6262177;28;20028;-69
2023/04/19 07:21:58;;;;;;;3.80;2.60;;;15.20;58.60;;;;;;6262569;28;20088;-71
2023/04/19 07:25:00;;;;;;;6.60;2.83;;;15.30;58.40;;;;;;6264858;28;20056;-71
2023/04/19 07:28:01;;;;;;;4.55;2.92;;;15.40;58.30;;;;;;6245529;28;20108;-70
2023/04/19 07:31:02;;;;;;;6.15;3.47;;;15.50;58.10;;;;;;6263420;28;20025;-71
2023/04/19 07:34:03;;;;;;;8.55;3.25;;;15.60;58.00;;;;;;6245296;28;20045;-70
2023/04/19 07:37:05;;;;;;;7.22;3.08;;;15.80;57.80;;;;;;6262402;28;20021;-69
2023/04/19 07:40:06;;;;;;;5.38;2.90;;;15.90;57.50;;;;;;6244713;28;20048;-71
2023/04/19 07:43:07;;;;;;;4.63;2.58;;;16.00;57.20;;;;;;6262751;28;20520;-69
2023/04/19 07:46:12;;;;;;;6.07;2.85;;;16.20;56.70;;;;;;6244763;28;20017;-69
2023/04/19 07:49:13;;;;;;;6.82;2.92;;;16.20;56.20;;;;;;6262141;28;20384;-71
2023/04/19 07:52:14;;;;;;;5.88;2.80;;;16.30;56.00;;;;;;6265027;28;20060;-68
2023/04/19 07:55:15;;;;;;;4.57;2.85;;;16.40;55.80;;;;;;6264176;28;20144;-72
2023/04/19 07:58:16;;;;;;;7.80;2.75;;;16.50;55.50;;;;;;6261934;28;20048;-70
2023/04/19 08:01:17;;;;;;;2.90;2.30;;;16.60;55.20;;;;;;6262330;28;20028;-72
2023/04/19 08:04:18;;;;;;;7.45;3.20;;;16.70;55.00;;;;;;6243855;28;20082;-72
2023/04/19 08:07:19;;;;;;;5.35;3.35;;;16.80;54.80;;;;;;6262179;28;20151;-71
2023/04/19 08:10:20;;;;;;;5.47;2.80;;;17.00;54.80;;;;;;6260062;28;20119;-70
2023/04/19 08:13:21;;;;;;;5.18;2.53;;;17.20;54.50;;;;;;6262433;28;21249;-71
2023/04/19 08:16:22;;;;;;;5.72;3.17;;;17.30;53.90;;;;;;6262445;28;20101;-69
2023/04/19 08:19:23;;;;;;;4.45;2.67;;;17.40;53.30;;;;;;6262323;28;20061;-71
2023/04/19 08:22:25;;;;;;;8.52;3.47;;;17.50;53.10;;;;;;6262497;28;20053;-69
2023/04/19 08:25:27;;;;;;;5.32;2.90;;;17.60;53.00;;;;;;6244160;28;20102;-70
2023/04/19 08:28:28;;;;;;;8.30;3.70;;;17.70;52.70;;;;;;6243602;28;20148;-69
2023/04/19 08:31:29;;;;;;;14.70;3.83;;;17.80;52.50;;;;;;6262978;28;20041;-69
2023/04/19 08:34:30;;;;;;;7.40;3.00;;;18.00;52.20;;;;;;6263262;28;20436;-71
2023/04/19 08:37:31;;;;;;;9.25;2.47;;;18.20;51.60;;;;;;6244848;28;20445;-70
2023/04/19 08:40:32;;;;;;;6.50;3.10;;;18.30;51.00;;;;;;6246583;28;20044;-70
2023/04/19 08:43:36;;;;;;;8.15;4.00;;;18.40;50.60;;;;;;6250093;28;20036;-72
2023/04/19 08:46:37;;;;;;;5.78;3.40;;;18.50;50.20;;;;;;6249114;28;20025;-72
2023/04/19 08:49:39;;;;;;;8.50;3.38;;;18.70;49.90;;;;;;6266958;28;20428;-71
2023/04/19 08:52:40;;;;;;;9.57;4.28;;;18.80;49.70;;;;;;6248075;28;20033;-70
2023/04/19 08:55:44;;;;;;;7.50;4.25;;;18.90;49.50;;;;;;6248691;28;20065;-71
2023/04/19 08:58:45;;;;;;;7.85;3.90;;;19.00;49.10;;;;;;6265898;28;20568;-71
2023/04/19 09:01:46;;;;;;;6.00;3.80;;;19.10;48.50;;;;;;6266316;28;20047;-71
2023/04/19 09:04:47;;;;;;;5.25;3.25;;;19.10;48.30;;;;;;6247930;28;20044;-70
2023/04/19 09:07:48;;;;;;;4.70;2.83;;;19.20;48.30;;;;;;6247957;28;20079;-70
2023/04/19 09:10:53;;;;;;;5.90;2.70;;;19.20;48.30;;;;;;6265856;28;20036;-72
2023/04/19 09:14:07;;;;;;;10.55;6.00;;;19.50;48.30;;;;;;6265898;28;20037;-69
2023/04/19 09:17:15;;;;;;;9.95;4.00;;;19.50;47.80;;;;;;6264273;28;20076;-70
2023/04/19 09:20:25;;;;;;;6.80;2.88;;;19.60;47.60;;;;;;6264773;28;20040;-70
2023/04/19 09:23:27;;;;;;;7.00;4.25;;;19.70;47.40;;;;;;6265440;28;20151;-70
2023/04/19 09:26:28;;;;;;;6.22;3.05;;;19.70;46.70;;;;;;6246921;28;20468;-71
2023/04/19 09:29:29;;;;;;;6.32;2.58;;;19.70;46.50;;;;;;6246883;28;20376;-70
2023/04/19 09:32:45;;;;;;;3.85;2.30;;;19.70;46.40;;;;;;6264789;28;20063;-71
2023/04/19 09:35:48;;;;;;;15.88;3.30;;;19.70;46.40;;;;;;6247419;28;20406;-70
2023/04/19 09:38:49;;;;;;;6.72;2.60;;;19.70;46.20;;;;;;6264677;28;20025;-70
2023/04/19 09:41:53;;;;;;;6.93;3.10;;;19.80;45.60;;;;;;6265067;28;20041;-70
2023/04/19 09:44:58;;;;;;;3.10;2.05;;;19.80;45.70;;;;;;6265309;28;20024;-71
2023/04/19 09:48:08;;;;;;;6.40;2.35;;;19.90;45.60;;;;;;6247479;28;20566;-69
2023/04/19 09:51:09;;;;;;;5.70;2.88;;;20.00;45.40;;;;;;6264200;28;20040;-70
2023/04/19 09:54:12;;;;;;;5.65;3.22;;;20.20;45.40;;;;;;6237518;28;20051;-71
2023/04/19 09:57:13;;;;;;;7.68;2.53;;;20.20;45.50;;;;;;6263779;28;20029;-70
2023/04/19 10:00:15;;;;;;;6.10;2.50;;;20.30;45.40;;;;;;6263322;28;20395;-69
2023/04/19 10:03:17;;;;;;;6.70;2.50;;;20.40;45.20;;;;;;6264651;28;20044;-71
2023/04/19 10:06:18;;;;;;;5.07;2.88;;;20.40;45.00;;;;;;6230549;28;20033;-70
2023/04/19 10:09:22;;;;;;;6.20;3.10;;;20.50;45.10;;;;;;6263416;28;20056;-70
2023/04/19 10:12:25;;;;;;;5.25;2.65;;;20.60;44.80;;;;;;6265095;28;20180;-70
2023/04/19 10:15:28;;;;;;;6.38;3.28;;;20.70;44.70;;;;;;6246942;28;20036;-70
2023/04/19 10:18:30;;;;;;;5.80;2.78;;;20.80;44.50;;;;;;6264298;28;20025;-71
2023/04/19 10:21:32;;;;;;;7.40;2.58;;;20.90;44.30;;;;;;6246519;28;20067;-69
2023/04/19 10:24:33;;;;;;;3.92;2.78;;;21.00;44.20;;;;;;6263849;28;20049;-68
2023/04/19 10:27:34;;;;;;;2.90;2.15;;;21.00;44.00;;;;;;6244589;28;20081;-70
2023/04/19 10:30:35;;;;;;;6.18;2.40;;;21.10;44.00;;;;;;6263203;28;20200;-70
2023/04/19 10:33:37;;;;;;;3.97;3.00;;;21.20;44.00;;;;;;6245538;28;20188;-70
2023/04/19 10:36:38;;;;;;;4.43;2.80;;;21.40;43.50;;;;;;6263522;28;20028;-72
2023/04/19 10:39:40;;;;;;;3.78;2.47;;;21.40;43.30;;;;;;6263312;28;20489;-71
2023/04/19 10:43:12;;;;;;;9.23;3.08;;;21.50;43.30;;;;;;6245485;28;20036;-72
2023/04/19 10:46:34;;;;;;;9.25;1.95;;;21.70;43.20;;;;;;6263951;28;20021;-71
2023/04/19 10:49:45;;;;;;;4.28;2.58;;;21.90;42.90;;;;;;6245165;28;20060;-71
2023/04/19 10:52:46;;;;;;;7.30;2.50;;;22.10;41.80;;;;;;6263331;28;20013;-70
2023/04/19 10:55:50;;;;;;;6.30;3.20;;;22.50;41.40;;;;;;6245198;28;20115;-70
2023/04/19 11:02:23;;;;;;;4.07;2.20;;;23.30;40.30;;;;;;6245444;28;20403;-70
2023/04/19 11:05:24;;;;;;;3.90;2.08;;;23.80;39.60;;;;;;6241750;28;20045;-70
2023/04/19 11:08:25;;;;;;;5.40;2.15;;;24.20;38.50;;;;;;6262934;28;20170;-71
2023/04/19 11:11:26;;;;;;;2.60;1.90;;;24.50;37.70;;;;;;6262510;28;20049;-72
2023/04/19 11:14:32;;;;;;;4.30;2.30;;;24.80;37.00;;;;;;6244862;28;20414;-71
2023/04/19 11:17:32;;;;;;;3.15;2.10;;;25.20;36.00;;;;;;6262645;28;20335;-71
2023/04/19 11:20:33;;;;;;;5.20;2.08;;;25.60;35.30;;;;;;6262392;28;20102;-70
2023/04/19 11:23:34;;;;;;;3.80;1.80;;;26.00;34.00;;;;;;6262730;28;20405;-71
2023/04/19 11:26:35;;;;;;;2.67;1.90;;;26.20;33.40;;;;;;6262616;28;20033;-70
2023/04/19 11:29:36;;;;;;;4.18;2.10;;;26.40;33.20;;;;;;6263352;28;20086;-71
2023/04/19 11:32:43;;;;;;;2.70;1.70;;;26.70;33.00;;;;;;6262911;28;20017;-71
2023/04/19 11:35:43;;;;;;;5.53;2.08;;;27.10;33.40;;;;;;6262969;28;20247;-71
2023/04/19 11:38:48;;;;;;;2.05;1.63;;;27.30;32.40;;;;;;6262725;28;20090;-71
2023/04/19 11:41:49;;;;;;;2.90;2.00;;;27.50;31.90;;;;;;6244680;28;20068;-72
2023/04/19 11:44:51;;;;;;;3.25;1.52;;;27.70;31.60;;;;;;6243667;28;20069;-72
2023/04/19 11:47:52;;;;;;;5.13;1.52;;;28.00;31.10;;;;;;6261819;28;20122;-71
2023/04/19 11:50:57;;;;;;;2.03;1.60;;;28.30;30.40;;;;;;6243897;28;20478;-70
2023/04/19 11:53:58;;;;;;;1.60;1.35;;;28.70;30.00;;;;;;6261859;28;20044;-70
2023/04/19 11:57:04;;;;;;;2.92;1.80;;;29.00;29.60;;;;;;6244513;28;20174;-71
2023/04/19 12:00:10;;;;;;;1.90;1.50;;;29.40;29.00;;;;;;6262475;28;20075;-69
2023/04/19 12:03:15;;;;;;;3.28;1.50;;;29.50;28.50;;;;;;6262258;28;20063;-70
2023/04/19 12:06:27;;;;;;;8.65;2.00;;;30.00;28.10;;;;;;6262487;28;20334;-70
2023/04/19 12:09:29;;;;;;;4.35;1.70;;;30.20;27.10;;;;;;6244020;28;20444;-70
2023/04/19 12:12:32;;;;;;;1.95;1.70;;;30.40;27.10;;;;;;6262390;28;20059;-70
2023/04/19 12:15:41;;;;;;;5.40;1.80;;;30.70;26.50;;;;;;6264247;28;20021;-72
2023/04/19 12:18:50;;;;;;;2.22;1.52;;;30.70;26.50;;;;;;6266284;28;20049;-70
2023/04/19 12:21:51;;;;;;;3.78;1.60;;;30.70;26.20;;;;;;6266880;28;20114;-70
2023/04/19 12:24:53;;;;;;;2.35;1.13;;;30.80;25.70;;;;;;6267245;28;20088;-71
2023/04/19 12:27:54;;;;;;;3.17;1.40;;;31.20;25.40;;;;;;6266652;28;20074;-70
2023/04/19 12:30:55;;;;;;;1.67;1.30;;;31.70;25.00;;;;;;6267264;28;20108;-71
2023/04/19 12:33:56;;;;;;;1.63;1.27;;;32.10;24.40;;;;;;6267867;28;20051;-71
2023/04/19 12:36:57;;;;;;;5.45;1.67;;;32.70;23.60;;;;;;6267155;28;20033;-70
2023/04/19 12:39:58;;;;;;;1.15;1.05;;;33.20;22.80;;;;;;6265023;28;20506;-71
2023/04/19 12:42:59;;;;;;;1.55;1.00;;;33.70;22.50;;;;;;6232654;28;20041;-71
2023/04/19 12:46:00;;;;;;;2.03;1.05;;;34.20;21.70;;;;;;6231611;28;20040;-70
2023/04/19 12:49:01;;;;;;;1.67;1.15;;;34.70;21.20;;;;;;6248021;28;20468;-69
2023/04/19 12:52:02;;;;;;;1.50;1.10;;;35.10;20.60;;;;;;6265906;28;20108;-70
2023/04/19 12:55:03;;;;;;;2.40;1.27;;;35.40;20.00;;;;;;6265952;28;20029;-70
2023/04/19 12:58:03;;;;;;;4.70;1.10;;;35.60;19.70;;;;;;6248301;28;20044;-69
2023/04/19 13:01:05;;;;;;;0.98;0.98;;;35.60;19.50;;;;;;6266344;28;20040;-72
2023/04/19 13:04:10;;;;;;;1.52;1.27;;;36.00;19.10;;;;;;6266626;28;20045;-70
2023/04/19 13:07:11;;;;;;;3.35;1.17;;;36.30;18.80;;;;;;6266128;28;20021;-71
2023/04/19 13:10:12;;;;;;;2.17;1.55;;;37.00;18.50;;;;;;6266627;28;20098;-72
2023/04/19 13:13:12;;;;;;;1.52;1.00;;;37.50;17.90;;;;;;6248731;28;20055;-73
2023/04/19 13:16:13;;;;;;;1.50;0.82;;;37.50;17.40;;;;;;6265357;28;20059;-70
2023/04/19 13:19:14;;;;;;;1.52;0.70;;;37.50;17.00;;;;;;6265094;28;20032;-71
2023/04/19 13:22:15;;;;;;;3.60;1.20;;;37.60;16.40;;;;;;6247850;28;20073;-70
2023/04/19 13:25:16;;;;;;;1.50;1.10;;;38.10;16.60;;;;;;6247615;28;20041;-71
2023/04/19 13:28:20;;;;;;;1.63;0.82;;;38.70;16.50;;;;;;6247306;28;20029;-70
2023/04/19 13:31:21;;;;;;;1.88;1.00;;;39.10;16.20;;;;;;6265350;28;20114;-72
2023/04/19 13:34:22;;;;;;;5.93;1.20;;;39.00;16.10;;;;;;6267618;28;20025;-71
2023/04/19 13:37:23;;;;;;;4.32;1.10;;;38.80;16.10;;;;;;6249125;28;20041;-72
2023/04/19 13:40:24;;;;;;;5.35;1.20;;;38.70;15.90;;;;;;6268092;28;20024;-71
2023/04/19 13:43:25;;;;;;;1.40;1.02;;;38.60;16.00;;;;;;6267167;28;20533;-70
2023/04/19 13:46:26;;;;;;;2.88;1.13;;;39.00;16.10;;;;;;6264535;28;20021;-70
2023/04/19 13:49:28;;;;;;;2.55;1.30;;;39.70;15.90;;;;;;6247278;28;20453;-71
2023/04/19 13:52:29;;;;;;;2.63;1.60;;;40.00;15.60;;;;;;6266620;28;21092;-69
2023/04/19 13:55:30;;;;;;;9.32;1.40;;;40.20;15.60;;;;;;6268275;28;20040;-70
2023/04/19 13:58:31;;;;;;;1.52;1.20;;;40.10;16.00;;;;;;6263796;28;20457;-69
2023/04/19 14:01:32;;;;;;;1.20;1.10;;;40.00;15.90;;;;;;6248828;28;20037;-71
2023/04/19 14:04:33;;;;;;;5.00;1.60;;;39.60;15.70;;;;;;6266310;28;20013;-71
2023/04/19 14:07:34;;;;;;;2.10;1.45;;;38.60;16.10;;;;;;6263968;28;20481;-70
2023/04/19 14:10:36;;;;;;;5.38;1.65;;;37.20;16.70;;;;;;6268844;28;20517;-71
2023/04/19 14:13:38;;;;;;;1.60;1.50;;;36.40;17.20;;;;;;6247978;28;20032;-71
2023/04/19 14:16:40;;;;;;;5.28;1.60;;;35.90;17.40;;;;;;6231363;28;20056;-70
2023/04/19 14:19:41;;;;;;;1.67;1.33;;;35.30;18.30;;;;;;6246015;28;20037;-70
2023/04/19 14:22:44;;;;;;;2.17;1.50;;;34.50;18.60;;;;;;6249949;28;20029;-70
2023/04/19 14:25:46;;;;;;;3.47;1.38;;;33.60;19.20;;;;;;6234071;28;20025;-69
2023/04/19 14:28:47;;;;;;;2.60;1.33;;;32.90;20.00;;;;;;6268227;28;20099;-70
2023/04/19 14:31:48;;;;;;;1.40;1.30;;;32.40;20.40;;;;;;6265731;28;20079;-68
2023/04/19 14:34:50;;;;;;;1.65;1.33;;;31.90;20.40;;;;;;6267182;28;20041;-70
2023/04/19 14:37:51;;;;;;;1.88;1.40;;;31.30;20.60;;;;;;6266103;28;20033;-70
2023/04/19 14:40:52;;;;;;;2.22;1.42;;;30.70;21.10;;;;;;6267955;28;20021;-69
2023/04/19 14:43:54;;;;;;;1.60;1.40;;;30.30;21.60;;;;;;6263858;28;21082;-70
2023/04/19 14:46:55;;;;;;;2.90;1.70;;;29.80;22.20;;;;;;6267080;28;20037;-70
2023/04/19 14:49:57;;;;;;;1.58;1.40;;;29.30;22.90;;;;;;6267407;28;20474;-71
2023/04/19 14:52:58;;;;;;;1.92;1.23;;;28.90;23.40;;;;;;6246357;28;20052;-70
2023/04/19 14:56:03;;;;;;;1.90;1.60;;;28.60;23.60;;;;;;6261838;28;20469;-70
2023/04/19 14:59:06;;;;;;;3.03;1.60;;;28.30;24.20;;;;;;6263309;28;20032;-69
2023/04/19 15:02:09;;;;;;;5.22;1.60;;;28.00;24.80;;;;;;6263533;28;20037;-71
2023/04/19 15:05:10;;;;;;;4.00;2.65;;;27.80;24.90;;;;;;6245914;28;20041;-71
2023/04/19 15:08:11;;;;;;;2.72;1.60;;;27.50;25.00;;;;;;6266542;28;20523;-72
2023/04/19 15:11:13;;;;;;;1.95;1.38;;;27.30;25.10;;;;;;6264019;28;20052;-71
2023/04/19 15:14:14;;;;;;;2.25;1.70;;;26.90;25.40;;;;;;6262012;28;20033;-69
2023/04/19 15:17:15;;;;;;;3.47;1.25;;;26.70;25.50;;;;;;6243385;28;20363;-69
2023/04/19 15:20:16;;;;;;;2.45;1.52;;;26.60;25.70;;;;;;6243561;28;20048;-70
2023/04/19 15:23:17;;;;;;;1.88;1.20;;;26.40;25.90;;;;;;6261618;28;20036;-71
2023/04/19 15:26:18;;;;;;;2.38;1.38;;;26.30;26.20;;;;;;6261671;28;20113;-70
2023/04/19 15:29:19;;;;;;;1.40;1.20;;;26.20;26.60;;;;;;6260476;28;20090;-70
2023/04/19 15:32:20;;;;;;;5.13;1.40;;;26.10;26.90;;;;;;6260635;28;20191;-69
2023/04/19 15:35:21;;;;;;;1.42;1.33;;;26.10;27.00;;;;;;6261334;28;20035;-71
2023/04/19 15:38:24;;;;;;;1.77;1.35;;;26.00;26.90;;;;;;6261251;28;20079;-72
2023/04/19 15:41:25;;;;;;;2.35;1.60;;;26.00;27.00;;;;;;6262431;28;20044;-70
2023/04/19 15:44:26;;;;;;;1.95;1.55;;;26.00;27.00;;;;;;6262211;28;20032;-70
2023/04/19 15:47:27;;;;;;;2.10;1.48;;;26.20;26.90;;;;;;6242995;28;20113;-70
2023/04/19 15:50:28;;;;;;;2.03;1.40;;;26.30;26.70;;;;;;6262768;28;20029;-69